Time;durP1;ratioP1;P1;durP2;ratioP2;P2;SDS_P1;SDS_P2;PMS_P1;PMS_P2;Temp;Humidity;BMP_temperature;BMP_pressure;BME280_temperature;BME280_humidity;BME280_pressure;Samples;Min_cycle;Max_cycle;Signal;HPM_P1;HPM_P2
2023/06/06 00:00:26;;;;;;;8.05;2.58;;;;;;;;;;5072614;27;92141;-75
2023/06/06 00:02:52;;;;;;;5.88;2.42;;;;;;;;;;5069463;27;93221;-75
2023/06/06 00:05:20;;;;;;;7.05;2.60;;;;;;;;;;5057472;27;95178;-75
2023/06/06 00:07:47;;;;;;;5.95;2.38;;;;;;;;;;5061418;27;95223;-75
2023/06/06 00:10:15;;;;;;;6.47;2.30;;;;;;;;;;5080324;27;92323;-76
2023/06/06 00:12:43;;;;;;;6.75;2.50;;;;;;;;;;5062061;27;92542;-76
2023/06/06 00:15:12;;;;;;;8.40;2.50;;;;;;;;;;5060722;27;92185;-76
2023/06/06 00:17:40;;;;;;;5.90;2.33;;;;;;;;;;5061366;27;92717;-77
2023/06/06 00:20:08;;;;;;;5.82;2.20;;;;;;;;;;5064571;27;93993;-76
2023/06/06 00:22:36;;;;;;;6.25;2.30;;;;;;;;;;5061600;27;91738;-76
2023/06/06 00:25:04;;;;;;;4.80;2.28;;;;;;;;;;5065756;27;92691;-77
2023/06/06 00:27:34;;;;;;;6.07;2.45;;;;;;;;;;5063812;27;92397;-77
2023/06/06 00:30:00;;;;;;;7.70;2.47;;;;;;;;;;5058422;27;95946;-75
2023/06/06 00:32:27;;;;;;;9.35;2.72;;;;;;;;;;5060912;27;92297;-76
2023/06/06 00:34:54;;;;;;;6.90;2.53;;;;;;;;;;5071157;27;92618;-75
2023/06/06 00:37:20;;;;;;;5.63;2.13;;;;;;;;;;5074247;27;92676;-75
2023/06/06 00:39:47;;;;;;;6.55;2.65;;;;;;;;;;5062686;27;92561;-75
2023/06/06 00:42:13;;;;;;;6.43;2.35;;;;;;;;;;5070128;27;94473;-75
2023/06/06 00:44:40;;;;;;;6.80;2.70;;;;;;;;;;5073243;27;92599;-76
2023/06/06 00:47:07;;;;;;;5.68;2.22;;;;;;;;;;5060740;27;92420;-76
2023/06/06 00:49:36;;;;;;;6.88;2.10;;;;;;;;;;5062342;27;94655;-75
2023/06/06 00:52:03;;;;;;;6.47;2.60;;;;;;;;;;5079396;27;97558;-75
2023/06/06 00:54:30;;;;;;;5.82;2.20;;;;;;;;;;5078403;27;94530;-76
2023/06/06 00:56:57;;;;;;;6.35;2.20;;;;;;;;;;5062598;27;92868;-75
2023/06/06 00:59:24;;;;;;;6.05;2.30;;;;;;;;;;5059157;27;92118;-74
2023/06/06 01:01:51;;;;;;;6.82;2.40;;;;;;;;;;5061777;27;92923;-74
2023/06/06 01:04:19;;;;;;;;;;;;;;;;;;5067195;27;92727;-75
2023/06/06 01:06:46;;;;;;;5.30;2.17;;;;;;;;;;5066655;27;103959;-75
2023/06/06 01:09:15;;;;;;;10.13;2.70;;;;;;;;;;5084016;27;92756;-74
2023/06/06 01:11:48;;;;;;;8.73;2.70;;;;;;;;;;5079791;27;91573;-75
2023/06/06 01:14:29;;;;;;;7.03;2.75;;;;;;;;;;5064567;27;91963;-75
2023/06/06 01:16:58;;;;;;;9.30;2.55;;;;;;;;;;5062562;27;94520;-77
2023/06/06 01:19:29;;;;;;;9.57;3.08;;;;;;;;;;5071952;27;94589;-76
2023/06/06 01:21:57;;;;;;;7.72;3.00;;;;;;;;;;5082564;27;96958;-76
2023/06/06 01:24:27;;;;;;;6.50;2.70;;;;;;;;;;5084366;27;92566;-76
2023/06/06 01:26:54;;;;;;;10.02;2.83;;;;;;;;;;5087526;27;92326;-77
2023/06/06 01:29:21;;;;;;;7.05;2.50;;;;;;;;;;5062883;27;93167;-77
2023/06/06 01:32:05;;;;;;;8.57;2.72;;;;;;;;;;5062591;27;92527;-77
2023/06/06 01:34:41;;;;;;;10.32;2.90;;;;;;;;;;5064184;27;92384;-77
2023/06/06 01:37:14;;;;;;;11.02;3.33;;;;;;;;;;5062923;27;98503;-78
2023/06/06 01:39:43;;;;;;;9.55;2.80;;;;;;;;;;5063399;27;92328;-77
2023/06/06 01:42:10;;;;;;;8.15;2.40;;;;;;;;;;5061846;27;93653;-78
2023/06/06 01:44:37;;;;;;;8.20;2.53;;;;;;;;;;5061126;27;97196;-78
2023/06/06 01:47:04;;;;;;;7.40;2.83;;;;;;;;;;5063163;27;92059;-77
2023/06/06 01:49:31;;;;;;;;;;;;;;;;;;5078952;27;92443;-77
2023/06/06 01:51:57;;;;;;;6.07;2.50;;;;;;;;;;5071148;27;116826;-78
2023/06/06 01:54:24;;;;;;;6.18;2.60;;;;;;;;;;5063436;27;93488;-76
2023/06/06 01:56:51;;;;;;;10.05;2.90;;;;;;;;;;5063546;27;92720;-76
2023/06/06 01:59:17;;;;;;;7.03;3.05;;;;;;;;;;5075844;27;92163;-76
2023/06/06 02:01:44;;;;;;;6.43;2.78;;;;;;;;;;5084219;27;93297;-76
2023/06/06 02:04:10;;;;;;;11.85;2.92;;;;;;;;;;5084007;27;93366;-76
2023/06/06 02:06:37;;;;;;;12.27;3.20;;;;;;;;;;5080844;27;92139;-77
2023/06/06 02:09:03;;;;;;;9.90;2.72;;;;;;;;;;5082201;27;95089;-76
2023/06/06 02:11:34;;;;;;;6.47;2.50;;;;;;;;;;5085368;27;92936;-76
2023/06/06 02:14:02;;;;;;;6.95;2.80;;;;;;;;;;5081324;27;93351;-77
2023/06/06 02:16:29;;;;;;;5.78;2.55;;;;;;;;;;5066355;27;92660;-77
2023/06/06 02:18:57;;;;;;;7.50;2.60;;;;;;;;;;5061786;27;92275;-78
2023/06/06 02:21:25;;;;;;;9.32;2.72;;;;;;;;;;5071786;27;94587;-77
2023/06/06 02:23:51;;;;;;;7.18;2.75;;;;;;;;;;5082023;27;93413;-77
2023/06/06 02:26:18;;;;;;;7.00;2.70;;;;;;;;;;5082990;27;91401;-77
2023/06/06 02:28:45;;;;;;;5.82;2.42;;;;;;;;;;5067448;27;92038;-77
2023/06/06 02:31:14;;;;;;;7.93;2.85;;;;;;;;;;5071707;27;95453;-77
2023/06/06 02:33:41;;;;;;;6.45;2.45;;;;;;;;;;5073291;27;94561;-77
2023/06/06 02:36:08;;;;;;;6.45;2.60;;;;;;;;;;5067108;27;92733;-77
2023/06/06 02:38:34;;;;;;;6.45;2.50;;;;;;;;;;5061708;27;92208;-77
2023/06/06 02:41:01;;;;;;;6.57;2.70;;;;;;;;;;5061142;27;92867;-77
2023/06/06 02:43:27;;;;;;;6.78;2.58;;;;;;;;;;5060651;27;99463;-77
2023/06/06 02:45:55;;;;;;;5.60;2.42;;;;;;;;;;5067235;27;92342;-76
2023/06/06 02:51:50;;;;;;;7.07;2.50;;;;;;;;;;5072789;27;95769;-77
2023/06/06 02:54:16;;;;;;;7.28;3.00;;;;;;;;;;5083814;27;92508;-77
2023/06/06 02:56:43;;;;;;;5.40;2.58;;;;;;;;;;5071004;27;92855;-76
2023/06/06 02:59:10;;;;;;;9.32;3.00;;;;;;;;;;5079160;27;95309;-77
2023/06/06 03:01:36;;;;;;;5.80;2.50;;;;;;;;;;5081598;27;94757;-77
2023/06/06 03:04:03;;;;;;;6.13;2.65;;;;;;;;;;5081813;27;93858;-76
2023/06/06 03:06:30;;;;;;;6.15;2.50;;;;;;;;;;5081206;27;92416;-78
2023/06/06 03:08:57;;;;;;;5.20;2.30;;;;;;;;;;5064410;27;95283;-78
2023/06/06 03:11:25;;;;;;;5.45;2.33;;;;;;;;;;5080352;27;93232;-77
2023/06/06 03:13:52;;;;;;;6.45;2.55;;;;;;;;;;5053477;27;92147;-77
2023/06/06 03:16:19;;;;;;;7.53;2.70;;;;;;;;;;5067496;27;95404;-77
2023/06/06 03:18:46;;;;;;;6.00;2.35;;;;;;;;;;5070041;27;92132;-77
2023/06/06 03:21:15;;;;;;;6.22;2.63;;;;;;;;;;5080425;27;94476;-77
2023/06/06 03:23:45;;;;;;;8.55;2.53;;;;;;;;;;5077798;27;94890;-77
2023/06/06 03:26:12;;;;;;;5.60;2.58;;;;;;;;;;5069578;27;92618;-76
2023/06/06 03:28:40;;;;;;;5.47;2.15;;;;;;;;;;5080573;27;92369;-76
2023/06/06 03:31:10;;;;;;;6.85;2.50;;;;;;;;;;5072033;27;95571;-77
2023/06/06 03:33:48;;;;;;;5.75;2.53;;;;;;;;;;5069364;27;92178;-76
2023/06/06 03:36:14;;;;;;;7.47;2.85;;;;;;;;;;5063953;27;95397;-77
2023/06/06 03:38:41;;;;;;;7.05;2.60;;;;;;;;;;5083618;27;93338;-77
2023/06/06 03:41:08;;;;;;;5.68;2.33;;;;;;;;;;5081859;27;92726;-77
2023/06/06 03:43:36;;;;;;;6.40;2.40;;;;;;;;;;5072852;27;94666;-77
2023/06/06 03:46:03;;;;;;;6.57;2.50;;;;;;;;;;5071154;27;92095;-77
2023/06/06 03:48:30;;;;;;;5.43;2.40;;;;;;;;;;5075948;27;95027;-77
2023/06/06 03:50:56;;;;;;;11.23;3.28;;;;;;;;;;5079082;27;95426;-76
2023/06/06 03:53:23;;;;;;;7.72;2.65;;;;;;;;;;5089569;27;92397;-77
2023/06/06 03:55:49;;;;;;;6.85;2.80;;;;;;;;;;5075743;27;93300;-78
2023/06/06 03:58:18;;;;;;;5.45;2.30;;;;;;;;;;5081073;27;92761;-77
2023/06/06 04:00:45;;;;;;;7.07;2.45;;;;;;;;;;5077030;27;93731;-76
2023/06/06 04:03:12;;;;;;;6.25;2.45;;;;;;;;;;5078182;27;93869;-77
2023/06/06 04:05:39;;;;;;;6.88;2.60;;;;;;;;;;5081712;27;91322;-76
2023/06/06 04:08:08;;;;;;;6.05;2.30;;;;;;;;;;5065722;27;93494;-77
2023/06/06 04:10:34;;;;;;;7.10;2.40;;;;;;;;;;5081337;27;93137;-76
2023/06/06 04:13:02;;;;;;;6.78;2.50;;;;;;;;;;5078466;27;94578;-76
2023/06/06 04:15:28;;;;;;;5.72;2.40;;;;;;;;;;5079752;27;101743;-77
2023/06/06 04:17:55;;;;;;;6.28;2.40;;;;;;;;;;5079466;27;94635;-77
2023/06/06 04:20:22;;;;;;;8.98;2.75;;;;;;;;;;5079158;27;92074;-76
2023/06/06 04:22:51;;;;;;;7.45;2.75;;;;;;;;;;5078652;27;95665;-76
2023/06/06 04:25:19;;;;;;;6.25;2.60;;;;;;;;;;5078803;27;92594;-77
2023/06/06 04:27:48;;;;;;;6.40;2.53;;;;;;;;;;5079133;27;94915;-77
2023/06/06 04:30:14;;;;;;;7.45;2.80;;;;;;;;;;5081619;27;92871;-77
2023/06/06 04:32:41;;;;;;;8.05;2.60;;;;;;;;;;5080968;27;92733;-77
2023/06/06 04:35:09;;;;;;;5.80;2.58;;;;;;;;;;5072543;27;92742;-77
2023/06/06 04:37:37;;;;;;;5.75;2.45;;;;;;;;;;5079615;27;97461;-77
2023/06/06 04:40:10;;;;;;;6.13;2.63;;;;;;;;;;5083535;27;92338;-76
2023/06/06 04:42:36;;;;;;;5.75;2.45;;;;;;;;;;5084775;27;94747;-77
2023/06/06 04:45:03;;;;;;;6.28;2.60;;;;;;;;;;5084486;27;92785;-77
2023/06/06 04:47:31;;;;;;;4.93;2.08;;;;;;;;;;5082764;27;95145;-77
2023/06/06 04:49:58;;;;;;;5.35;2.40;;;;;;;;;;5083268;27;94148;-77
2023/06/06 04:52:24;;;;;;;6.43;2.47;;;;;;;;;;5083478;27;92491;-78
2023/06/06 04:54:51;;;;;;;5.38;2.30;;;;;;;;;;5083320;27;94821;-77
2023/06/06 04:57:19;;;;;;;5.97;2.45;;;;;;;;;;5074702;27;93233;-78
2023/06/06 04:59:52;;;;;;;8.52;2.60;;;;;;;;;;5083660;27;92432;-77
2023/06/06 05:02:20;;;;;;;6.50;2.30;;;;;;;;;;5071144;27;95139;-78
2023/06/06 05:04:48;;;;;;;5.10;2.40;;;;;;;;;;5085305;27;92615;-76
2023/06/06 05:07:14;;;;;;;6.78;2.85;;;;;;;;;;5083728;27;92409;-77
2023/06/06 05:09:41;;;;;;;5.68;2.30;;;;;;;;;;5080112;27;92703;-76
2023/06/06 05:12:08;;;;;;;5.57;2.30;;;;;;;;;;5084122;27;92239;-76
2023/06/06 05:14:34;;;;;;;4.93;2.40;;;;;;;;;;5084121;27;92372;-76
2023/06/06 05:17:01;;;;;;;5.47;2.00;;;;;;;;;;5083846;27;92755;-76
2023/06/06 05:19:27;;;;;;;5.43;2.10;;;;;;;;;;5081411;27;91937;-77
2023/06/06 05:21:54;;;;;;;5.85;2.47;;;;;;;;;;5084134;27;92085;-77
2023/06/06 05:24:21;;;;;;;9.38;2.85;;;;;;;;;;5079478;27;92490;-77
2023/06/06 05:26:47;;;;;;;5.82;2.30;;;;;;;;;;5085381;27;94734;-77
2023/06/06 05:29:14;;;;;;;5.15;2.20;;;;;;;;;;5081628;27;92901;-77
2023/06/06 05:31:40;;;;;;;6.68;2.25;;;;;;;;;;5084087;27;92040;-77
2023/06/06 05:34:07;;;;;;;5.82;2.30;;;;;;;;;;5083655;27;92331;-77
2023/06/06 05:36:34;;;;;;;5.43;2.20;;;;;;;;;;5083881;27;92705;-77
2023/06/06 05:39:00;;;;;;;4.95;2.33;;;;;;;;;;5083486;27;92160;-77
2023/06/06 05:41:27;;;;;;;6.72;2.60;;;;;;;;;;5082684;27;92750;-77
2023/06/06 05:43:54;;;;;;;8.18;2.70;;;;;;;;;;5083526;27;91915;-75
2023/06/06 05:46:20;;;;;;;9.80;2.60;;;;;;;;;;5082224;27;92115;-76
2023/06/06 05:48:47;;;;;;;6.75;2.60;;;;;;;;;;5085466;27;92696;-76
2023/06/06 05:51:13;;;;;;;7.45;2.30;;;;;;;;;;5080171;27;94504;-76
2023/06/06 05:53:44;;;;;;;6.35;2.50;;;;;;;;;;5057707;27;97492;-76
2023/06/06 05:56:11;;;;;;;5.78;2.22;;;;;;;;;;5081676;27;95274;-76
2023/06/06 05:58:37;;;;;;;5.53;2.20;;;;;;;;;;5073140;27;92367;-75
2023/06/06 06:01:08;;;;;;;7.38;2.35;;;;;;;;;;5070467;27;92464;-75
2023/06/06 06:03:36;;;;;;;5.50;2.33;;;;;;;;;;5082663;27;92742;-75
2023/06/06 06:06:04;;;;;;;5.93;2.20;;;;;;;;;;5075568;27;92448;-76
2023/06/06 06:08:34;;;;;;;6.57;2.50;;;;;;;;;;5083803;27;92542;-75
2023/06/06 06:11:01;;;;;;;7.65;2.60;;;;;;;;;;5086111;27;93024;-77
2023/06/06 06:13:28;;;;;;;5.05;2.22;;;;;;;;;;5082079;27;92088;-76
2023/06/06 06:15:54;;;;;;;5.22;2.25;;;;;;;;;;5073304;27;95257;-76
2023/06/06 06:18:21;;;;;;;5.10;2.17;;;;;;;;;;5083108;27;92097;-76
2023/06/06 06:20:48;;;;;;;8.80;2.28;;;;;;;;;;5076408;27;93566;-76
2023/06/06 06:23:14;;;;;;;7.10;2.55;;;;;;;;;;5080841;27;93134;-77
2023/06/06 06:25:41;;;;;;;7.57;2.50;;;;;;;;;;5082949;27;92160;-77
2023/06/06 06:28:17;;;;;;;7.95;2.45;;;;;;;;;;5072054;27;93432;-76
2023/06/06 06:30:44;;;;;;;6.68;2.13;;;;;;;;;;5081231;27;92234;-75
2023/06/06 06:33:11;;;;;;;13.15;2.70;;;;;;;;;;5085150;27;91570;-74
2023/06/06 06:35:38;;;;;;;12.75;3.20;;;;;;;;;;5079964;27;93057;-74
2023/06/06 06:38:04;;;;;;;9.85;2.75;;;;;;;;;;5083154;27;92341;-73
2023/06/06 06:40:31;;;;;;;6.85;2.10;;;;;;;;;;5076294;27;95161;-74
2023/06/06 06:42:58;;;;;;;5.95;2.20;;;;;;;;;;5082848;27;93525;-75
2023/06/06 06:45:41;;;;;;;7.40;2.17;;;;;;;;;;5079427;27;92656;-75
2023/06/06 06:48:07;;;;;;;6.35;2.08;;;;;;;;;;5076280;27;92861;-75
2023/06/06 06:50:34;;;;;;;6.85;2.33;;;;;;;;;;5078226;27;92708;-76
2023/06/06 06:53:02;;;;;;;6.15;2.30;;;;;;;;;;5081848;27;92163;-76
2023/06/06 06:55:28;;;;;;;7.63;2.30;;;;;;;;;;5082192;27;97495;-75
2023/06/06 06:57:56;;;;;;;7.68;2.38;;;;;;;;;;5074083;27;91748;-75
2023/06/06 07:00:23;;;;;;;5.03;2.03;;;;;;;;;;5078102;27;93139;-75
2023/06/06 07:02:53;;;;;;;6.53;2.30;;;;;;;;;;5071938;27;93459;-75
2023/06/06 07:05:20;;;;;;;6.90;2.20;;;;;;;;;;5077444;27;94553;-76
2023/06/06 07:07:53;;;;;;;6.95;2.60;;;;;;;;;;5074836;27;92088;-75
2023/06/06 07:10:21;;;;;;;9.57;2.20;;;;;;;;;;5065566;27;93366;-76
2023/06/06 07:12:49;;;;;;;8.73;2.38;;;;;;;;;;5079331;27;92472;-76
2023/06/06 07:15:18;;;;;;;9.55;2.42;;;;;;;;;;5066280;27;94421;-76
2023/06/06 07:17:49;;;;;;;7.43;2.15;;;;;;;;;;5065808;27;92447;-76
2023/06/06 07:20:18;;;;;;;12.32;2.65;;;;;;;;;;5066266;27;92417;-76
2023/06/06 07:22:45;;;;;;;7.38;2.22;;;;;;;;;;5070172;27;91990;-77
2023/06/06 07:25:11;;;;;;;5.68;1.98;;;;;;;;;;5079274;27;92632;-76
2023/06/06 07:27:38;;;;;;;5.93;2.20;;;;;;;;;;5070348;27;92907;-76
2023/06/06 07:30:06;;;;;;;9.85;2.40;;;;;;;;;;5076930;27;95085;-76
2023/06/06 07:32:33;;;;;;;7.22;2.35;;;;;;;;;;5076593;27;92252;-76
2023/06/06 07:35:00;;;;;;;4.70;1.90;;;;;;;;;;5080446;27;92459;-77
2023/06/06 07:37:27;;;;;;;10.05;2.20;;;;;;;;;;5076886;27;92638;-76
2023/06/06 07:39:53;;;;;;;8.45;2.42;;;;;;;;;;5076094;27;93253;-76
2023/06/06 07:42:20;;;;;;;8.32;2.80;;;;;;;;;;5073136;27;93274;-76
2023/06/06 07:44:48;;;;;;;7.60;2.35;;;;;;;;;;5077572;27;92369;-76
2023/06/06 07:47:14;;;;;;;6.75;2.30;;;;;;;;;;5078896;27;92475;-77
2023/06/06 07:49:43;;;;;;;5.50;2.13;;;;;;;;;;5071989;27;93084;-77
2023/06/06 07:52:11;;;;;;;6.10;2.28;;;;;;;;;;5076297;27;92174;-76
2023/06/06 07:54:38;;;;;;;5.22;2.20;;;;;;;;;;5058341;27;94643;-76
2023/06/06 07:57:07;;;;;;;7.18;2.30;;;;;;;;;;5068848;27;95329;-76
2023/06/06 07:59:34;;;;;;;6.57;2.30;;;;;;;;;;5064454;27;92237;-77
2023/06/06 08:02:01;;;;;;;6.13;2.50;;;;;;;;;;5061075;27;92930;-77
2023/06/06 08:04:28;;;;;;;7.03;2.53;;;;;;;;;;5062109;27;92732;-77
2023/06/06 08:06:55;;;;;;;8.80;2.90;;;;;;;;;;5074912;27;92478;-76
2023/06/06 08:09:22;;;;;;;6.82;2.55;;;;;;;;;;5069843;27;92727;-76
2023/06/06 08:11:48;;;;;;;5.05;2.28;;;;;;;;;;5073690;27;91696;-76
2023/06/06 08:14:15;;;;;;;5.88;2.15;;;;;;;;;;5079980;27;93525;-76
2023/06/06 08:16:42;;;;;;;6.28;2.30;;;;;;;;;;5081396;27;93075;-76
2023/06/06 08:19:08;;;;;;;5.00;2.35;;;;;;;;;;5070131;27;94576;-77
2023/06/06 08:21:36;;;;;;;7.03;2.60;;;;;;;;;;5075698;27;94092;-76
2023/06/06 08:24:03;;;;;;;5.55;2.13;;;;;;;;;;5075813;27;92215;-76
2023/06/06 08:26:30;;;;;;;7.50;2.70;;;;;;;;;;5065302;27;91988;-76
2023/06/06 08:28:57;;;;;;;5.93;2.22;;;;;;;;;;5063766;27;92538;-77
2023/06/06 08:31:24;;;;;;;5.35;2.40;;;;;;;;;;5073298;27;92159;-76
2023/06/06 08:33:51;;;;;;;6.05;2.20;;;;;;;;;;5080053;27;93109;-76
2023/06/06 08:36:18;;;;;;;5.30;2.33;;;;;;;;;;5079826;27;93643;-75
2023/06/06 08:38:44;;;;;;;6.05;2.30;;;;;;;;;;5076935;27;92102;-76
2023/06/06 08:41:12;;;;;;;6.07;2.20;;;;;;;;;;5083330;27;93335;-77
2023/06/06 08:43:41;;;;;;;7.45;2.50;;;;;;;;;;5077569;27;94758;-77
2023/06/06 08:46:07;;;;;;;6.03;2.30;;;;;;;;;;5080350;27;94755;-77
2023/06/06 08:48:35;;;;;;;5.60;2.03;;;;;;;;;;5068321;27;93351;-77
2023/06/06 08:51:03;;;;;;;5.18;2.10;;;;;;;;;;5072561;27;91995;-77
2023/06/06 08:53:30;;;;;;;5.32;2.20;;;;;;;;;;5066801;27;97581;-76
2023/06/06 08:55:57;;;;;;;6.90;2.50;;;;;;;;;;5071370;27;92691;-76
2023/06/06 08:58:23;;;;;;;6.22;2.67;;;;;;;;;;5064895;27;92158;-76
2023/06/06 09:00:51;;;;;;;7.20;2.70;;;;;;;;;;5080507;27;92693;-75
2023/06/06 09:03:18;;;;;;;8.27;2.70;;;;;;;;;;5076556;27;92719;-75
2023/06/06 09:05:46;;;;;;;10.48;3.53;;;;;;;;;;5080670;27;92950;-76
2023/06/06 09:08:13;;;;;;;5.97;2.75;;;;;;;;;;5071507;27;95964;-76
2023/06/06 09:10:40;;;;;;;9.02;2.80;;;;;;;;;;5075835;27;92202;-76
2023/06/06 09:13:07;;;;;;;9.77;3.00;;;;;;;;;;5072746;27;92565;-76
2023/06/06 09:15:34;;;;;;;8.30;3.08;;;;;;;;;;5080475;27;93024;-76
2023/06/06 09:18:00;;;;;;;8.73;3.20;;;;;;;;;;5066818;27;92081;-76
2023/06/06 09:20:27;;;;;;;8.05;3.13;;;;;;;;;;5065578;27;92393;-77
2023/06/06 09:22:57;;;;;;;8.65;3.15;;;;;;;;;;5071381;27;95466;-76
2023/06/06 09:25:24;;;;;;;10.07;3.40;;;;;;;;;;5081561;27;91612;-76
2023/06/06 09:27:58;;;;;;;9.65;3.30;;;;;;;;;;5079267;27;92575;-77
2023/06/06 09:30:26;;;;;;;6.63;2.45;;;;;;;;;;5084443;27;92194;-75
2023/06/06 09:32:57;;;;;;;7.28;3.00;;;;;;;;;;5068533;27;94441;-76
2023/06/06 09:35:28;;;;;;;9.90;3.10;;;;;;;;;;5081225;27;94392;-76
2023/06/06 09:37:54;;;;;;;8.30;2.95;;;;;;;;;;5081925;27;92448;-77
2023/06/06 09:40:21;;;;;;;7.55;3.33;;;;;;;;;;5077609;27;94853;-76
2023/06/06 09:42:48;;;;;;;8.80;3.40;;;;;;;;;;5081949;27;92997;-77
2023/06/06 09:45:19;;;;;;;8.27;3.30;;;;;;;;;;5063980;27;92609;-77
2023/06/06 09:47:47;;;;;;;7.43;3.25;;;;;;;;;;5080169;27;92985;-76
2023/06/06 09:50:16;;;;;;;7.93;2.97;;;;;;;;;;5077964;27;91347;-75
2023/06/06 09:52:43;;;;;;;9.43;3.38;;;;;;;;;;5070382;27;94121;-77
2023/06/06 09:55:11;;;;;;;9.57;3.50;;;;;;;;;;5077230;27;94390;-77
2023/06/06 09:57:39;;;;;;;9.95;3.40;;;;;;;;;;5078467;27;97381;-76
2023/06/06 10:00:10;;;;;;;7.35;3.03;;;;;;;;;;5062137;27;95310;-76
2023/06/06 10:02:41;;;;;;;10.02;3.65;;;;;;;;;;5080750;27;92494;-76
2023/06/06 10:05:09;;;;;;;9.38;3.35;;;;;;;;;;5082164;27;92188;-77
2023/06/06 10:07:47;;;;;;;8.57;3.40;;;;;;;;;;5071746;27;95030;-76
2023/06/06 10:10:15;;;;;;;8.23;3.67;;;;;;;;;;5068136;27;93104;-77
2023/06/06 10:12:43;;;;;;;8.13;3.30;;;;;;;;;;5062884;27;92355;-77
2023/06/06 10:15:13;;;;;;;;;;;;;;;;;;5063390;27;92429;-77
2023/06/06 10:17:40;;;;;;;7.95;3.08;;;;;;;;;;5073090;27;92153;-76
2023/06/06 10:20:09;;;;;;;9.77;3.78;;;;;;;;;;5074058;27;93554;-77
2023/06/06 10:22:36;;;;;;;11.63;3.20;;;;;;;;;;5068711;27;95122;-77
2023/06/06 10:25:03;;;;;;;7.32;3.17;;;;;;;;;;5066232;27;92034;-77
2023/06/06 10:27:39;;;;;;;8.57;3.33;;;;;;;;;;5071475;27;92728;-77
2023/06/06 10:30:25;;;;;;;9.63;3.10;;;;;;;;;;5073796;27;93421;-77
2023/06/06 10:32:51;;;;;;;;;;;;;;;;;;5064608;27;92727;-77
2023/06/06 10:35:19;;;;;;;9.40;3.63;;;;;;;;;;5080861;27;94001;-76
2023/06/06 10:38:06;;;;;;;10.45;3.47;;;;;;;;;;5060748;27;92294;-77
2023/06/06 10:41:02;;;;;;;10.35;3.15;;;;;;;;;;5072029;27;92473;-78
2023/06/06 10:43:35;;;;;;;11.65;3.38;;;;;;;;;;5069363;27;97295;-78
2023/06/06 10:46:02;;;;;;;11.48;3.22;;;;;;;;;;5072535;27;92392;-77
2023/06/06 10:48:28;;;;;;;;;;;;;;;;;;5076430;27;94678;-76
2023/06/06 10:50:55;;;;;;;9.25;3.50;;;;;;;;;;5062437;27;113671;-76
2023/06/06 10:53:22;;;;;;;7.95;2.97;;;;;;;;;;5066214;27;92464;-78
2023/06/06 10:55:49;;;;;;;9.85;3.60;;;;;;;;;;5069029;27;92629;-79
2023/06/06 10:58:16;;;;;;;10.65;3.90;;;;;;;;;;5082684;27;92179;-80
2023/06/06 11:00:44;;;;;;;8.88;3.42;;;;;;;;;;5080077;27;92558;-76
2023/06/06 11:03:13;;;;;;;11.93;3.60;;;;;;;;;;5078518;27;92695;-75
2023/06/06 11:06:01;;;;;;;9.15;3.72;;;;;;;;;;5062462;27;91783;-76
2023/06/06 11:08:34;;;;;;;10.07;3.67;;;;;;;;;;5076690;27;91955;-76
2023/06/06 11:11:16;;;;;;;10.02;3.92;;;;;;;;;;5069880;27;92665;-76
2023/06/06 11:13:53;;;;;;;9.43;3.72;;;;;;;;;;5067873;27;95195;-76
2023/06/06 11:16:38;;;;;;;13.18;4.15;;;;;;;;;;5058355;27;97290;-75
2023/06/06 11:19:08;;;;;;;9.90;3.50;;;;;;;;;;5077908;27;92404;-75
2023/06/06 11:21:35;;;;;;;7.10;3.53;;;;;;;;;;5078041;27;92513;-76
2023/06/06 11:24:02;;;;;;;9.05;3.72;;;;;;;;;;5080797;27;93039;-76
2023/06/06 11:26:29;;;;;;;11.18;3.88;;;;;;;;;;5068966;27;92220;-76
2023/06/06 11:28:56;;;;;;;8.75;3.60;;;;;;;;;;5062829;27;94881;-76
2023/06/06 11:31:23;;;;;;;9.98;3.28;;;;;;;;;;5062619;27;94541;-76
2023/06/06 11:33:50;;;;;;;;;;;;;;;;;;5070865;27;92212;-76
2023/06/06 11:36:17;;;;;;;8.85;3.30;;;;;;;;;;5069462;27;115212;-76
2023/06/06 11:38:44;;;;;;;8.52;3.42;;;;;;;;;;5082088;27;95885;-76
2023/06/06 11:41:11;;;;;;;9.63;3.55;;;;;;;;;;5080232;27;96654;-77
2023/06/06 11:43:38;;;;;;;;;;;;;;;;;;5082342;27;93198;-76
2023/06/06 11:46:05;;;;;;;9.05;3.63;;;;;;;;;;5081801;27;94772;-76
2023/06/06 11:48:33;;;;;;;10.02;3.40;;;;;;;;;;5079732;27;92507;-76
2023/06/06 11:51:15;;;;;;;8.75;3.63;;;;;;;;;;5079276;27;92610;-75
2023/06/06 11:53:41;;;;;;;7.88;3.33;;;;;;;;;;5078916;27;92532;-76
2023/06/06 11:56:15;;;;;;;10.00;3.40;;;;;;;;;;5081804;27;92697;-76
2023/06/06 11:58:41;;;;;;;9.38;3.63;;;;;;;;;;5081536;27;92739;-77
2023/06/06 12:01:11;;;;;;;8.63;3.30;;;;;;;;;;5083528;27;92115;-76
2023/06/06 12:03:39;;;;;;;8.40;3.25;;;;;;;;;;5078189;27;95718;-75
2023/06/06 12:06:06;;;;;;;7.05;3.30;;;;;;;;;;5080153;27;92276;-76
2023/06/06 12:08:34;;;;;;;8.07;3.72;;;;;;;;;;5077627;27;92274;-76
2023/06/06 12:11:21;;;;;;;8.70;3.53;;;;;;;;;;5070618;27;95150;-76
2023/06/06 12:13:48;;;;;;;11.18;3.40;;;;;;;;;;5077158;27;92236;-76
2023/06/06 12:16:20;;;;;;;9.35;3.85;;;;;;;;;;5081717;27;92430;-76
2023/06/06 12:18:47;;;;;;;9.60;3.75;;;;;;;;;;5081100;27;92664;-76
2023/06/06 12:21:16;;;;;;;9.35;3.53;;;;;;;;;;5080585;27;91782;-76
2023/06/06 12:23:43;;;;;;;7.65;3.45;;;;;;;;;;5083840;27;92590;-75
2023/06/06 12:26:15;;;;;;;9.93;3.58;;;;;;;;;;5071857;27;92746;-76
2023/06/06 12:28:57;;;;;;;7.60;3.05;;;;;;;;;;5076964;27;94570;-76
2023/06/06 12:31:30;;;;;;;7.57;3.10;;;;;;;;;;5078540;27;92703;-76
2023/06/06 12:33:57;;;;;;;8.30;3.38;;;;;;;;;;5065238;27;92372;-76
2023/06/06 12:36:27;;;;;;;;;;;;;;;;;;5079394;27;92941;-76
2023/06/06 12:39:00;;;;;;;8.80;3.30;;;;;;;;;;5082153;27;110897;-75
2023/06/06 12:41:39;;;;;;;38.08;5.35;;;;;;;;;;5077816;27;92322;-75
2023/06/06 12:44:16;;;;;;;35.35;5.90;;;;;;;;;;5075682;27;92696;-76
2023/06/06 12:46:43;;;;;;;19.88;4.20;;;;;;;;;;5083192;27;92038;-76
2023/06/06 12:49:10;;;;;;;13.18;4.03;;;;;;;;;;5067505;27;93154;-76
2023/06/06 12:51:39;;;;;;;10.38;3.33;;;;;;;;;;5070907;27;93046;-76
2023/06/06 12:54:06;;;;;;;8.88;3.25;;;;;;;;;;5065019;27;94687;-76
2023/06/06 12:56:32;;;;;;;7.65;3.05;;;;;;;;;;5068435;27;94850;-76
2023/06/06 12:59:00;;;;;;;9.18;2.97;;;;;;;;;;5082667;27;92687;-76
2023/06/06 13:01:28;;;;;;;9.82;2.80;;;;;;;;;;5082910;27;92588;-76
2023/06/06 13:03:54;;;;;;;6.18;2.70;;;;;;;;;;5069622;27;92498;-76
2023/06/06 13:06:21;;;;;;;;;;;;;;;;;;5087071;27;92724;-76
2023/06/06 13:08:48;;;;;;;8.23;2.90;;;;;;;;;;5082657;27;110351;-76
2023/06/06 13:11:15;;;;;;;8.98;3.20;;;;;;;;;;5084132;27;91868;-77
2023/06/06 13:13:41;;;;;;;7.03;2.55;;;;;;;;;;5083386;27;92402;-76
2023/06/06 13:16:08;;;;;;;8.20;2.85;;;;;;;;;;5081327;27;92809;-76
2023/06/06 13:18:36;;;;;;;6.75;2.67;;;;;;;;;;5079238;27;97937;-76
2023/06/06 13:21:03;;;;;;;6.60;2.78;;;;;;;;;;5081049;27;92402;-76
2023/06/06 13:23:30;;;;;;;;;;;;;;;;;;5080615;27;96708;-76
2023/06/06 13:25:57;;;;;;;6.30;2.88;;;;;;;;;;5084691;27;100976;-75
2023/06/06 13:28:24;;;;;;;8.75;3.00;;;;;;;;;;5087229;27;92151;-76
2023/06/06 13:30:50;;;;;;;7.80;3.00;;;;;;;;;;5083639;27;93373;-76
2023/06/06 13:33:17;;;;;;;8.45;3.10;;;;;;;;;;5082560;27;92479;-76
2023/06/06 13:35:43;;;;;;;8.90;3.20;;;;;;;;;;5068336;27;92193;-76
2023/06/06 13:38:16;;;;;;;8.70;3.20;;;;;;;;;;5068036;27;93402;-76
2023/06/06 13:40:42;;;;;;;8.85;3.25;;;;;;;;;;5082126;27;92688;-75
2023/06/06 13:43:10;;;;;;;8.65;2.97;;;;;;;;;;5081540;27;94857;-76
2023/06/06 13:45:39;;;;;;;7.78;3.30;;;;;;;;;;5068763;27;93611;-75
2023/06/06 13:48:06;;;;;;;7.82;3.17;;;;;;;;;;5083546;27;92265;-76
2023/06/06 13:50:34;;;;;;;8.32;3.58;;;;;;;;;;5059105;27;92992;-76
2023/06/06 13:53:03;;;;;;;9.00;3.45;;;;;;;;;;5080251;27;92193;-75
2023/06/06 13:55:30;;;;;;;8.35;3.30;;;;;;;;;;5082789;27;97429;-74
2023/06/06 13:57:58;;;;;;;8.40;3.28;;;;;;;;;;5082994;27;92627;-74
2023/06/06 14:00:24;;;;;;;8.85;3.08;;;;;;;;;;5083784;27;91878;-75
2023/06/06 14:02:51;;;;;;;11.38;3.50;;;;;;;;;;5083280;27;92042;-75
2023/06/06 14:05:18;;;;;;;9.52;3.60;;;;;;;;;;5075904;27;92555;-76
2023/06/06 14:07:45;;;;;;;;;;;;;;;;;;5070110;27;94533;-75
2023/06/06 14:10:11;;;;;;;8.75;3.15;;;;;;;;;;5083644;27;94323;-76
2023/06/06 14:12:38;;;;;;;8.07;3.50;;;;;;;;;;5083081;27;93441;-76
2023/06/06 14:15:07;;;;;;;9.40;3.35;;;;;;;;;;5082235;27;92446;-77
2023/06/06 14:17:34;;;;;;;11.40;4.00;;;;;;;;;;5081226;27;93121;-77
2023/06/06 14:20:00;;;;;;;10.38;3.88;;;;;;;;;;5068832;27;92063;-77
2023/06/06 14:22:33;;;;;;;9.48;3.88;;;;;;;;;;5071279;27;92531;-77
2023/06/06 14:25:00;;;;;;;9.40;3.75;;;;;;;;;;5083783;27;91883;-77
2023/06/06 14:27:30;;;;;;;10.23;3.75;;;;;;;;;;5081693;27;92212;-77
2023/06/06 14:29:57;;;;;;;11.77;4.05;;;;;;;;;;5082959;27;92576;-76
2023/06/06 14:32:31;;;;;;;9.05;3.90;;;;;;;;;;5080395;27;95286;-77
2023/06/06 14:34:59;;;;;;;9.40;4.20;;;;;;;;;;5066434;27;92451;-77
2023/06/06 14:37:27;;;;;;;11.13;4.43;;;;;;;;;;5064522;27;94019;-77
2023/06/06 14:39:54;;;;;;;12.45;4.40;;;;;;;;;;5064660;27;92529;-77
2023/06/06 14:42:21;;;;;;;10.77;4.32;;;;;;;;;;5078049;27;92420;-77
2023/06/06 14:44:47;;;;;;;9.85;4.13;;;;;;;;;;5071711;27;92765;-77
2023/06/06 14:47:14;;;;;;;11.10;4.05;;;;;;;;;;5067229;27;92077;-77
2023/06/06 14:49:41;;;;;;;8.90;3.65;;;;;;;;;;5081225;27;92279;-77
2023/06/06 14:52:08;;;;;;;7.13;3.28;;;;;;;;;;5075530;27;92879;-77
2023/06/06 14:54:36;;;;;;;;;;;;;;;;;;5082743;27;92083;-77